createdAt,value
2023-03-29T00:01:03.270Z,40.20
2023-03-29T00:06:13.774Z,37.07
2023-03-29T00:11:22.652Z,38.27
2023-03-29T00:16:31.246Z,38.20
2023-03-29T00:21:38.442Z,37.70
2023-03-29T00:26:46.139Z,38.80
2023-03-29T00:31:54.661Z,38.63
2023-03-29T00:37:01.418Z,37.50
2023-03-29T00:42:11.901Z,37.40
2023-03-29T00:47:19.298Z,37.97
2023-03-29T00:52:29.212Z,37.47
2023-03-29T00:57:37.629Z,37.20
2023-03-29T01:02:46.540Z,38.63
2023-03-29T01:08:01.674Z,37.93
2023-03-29T01:13:16.364Z,37.57
2023-03-29T01:18:23.937Z,40.37
2023-03-29T01:23:46.942Z,37.67
2023-03-29T01:29:10.631Z,38.23
2023-03-29T01:34:26.396Z,39.90
2023-03-29T01:39:35.523Z,38.75
2023-03-29T01:44:59.443Z,38.43
2023-03-29T01:50:22.759Z,38.73
2023-03-29T01:55:39.945Z,39.33
2023-03-29T02:00:49.623Z,37.27
2023-03-29T02:05:58.419Z,38.67
2023-03-29T02:11:09.503Z,38.20
2023-03-29T02:16:20.812Z,39.80
2023-03-29T02:21:38.808Z,38.25
2023-03-29T02:26:46.915Z,39.13
2023-03-29T02:32:05.707Z,38.70
2023-03-29T02:37:18.673Z,37.83
2023-03-29T02:42:27.275Z,37.50
2023-03-29T02:47:39.780Z,37.50
2023-03-29T02:53:00.614Z,37.17
2023-03-29T02:58:10.682Z,38.07
2023-03-29T03:03:18.303Z,38.70
2023-03-29T03:08:27.889Z,39.66
2023-03-29T03:13:38.734Z,46.48
2023-03-29T03:18:46.454Z,41.97
2023-03-29T03:23:55.313Z,44.13
2023-03-29T03:29:02.646Z,45.17
2023-03-29T03:34:11.015Z,40.92
2023-03-29T03:39:18.642Z,40.73
2023-03-29T03:44:25.762Z,40.27
2023-03-29T03:49:37.499Z,41.37
2023-03-29T03:54:47.101Z,41.07
2023-03-29T03:59:54.231Z,39.60
2023-03-29T04:05:03.227Z,38.20
2023-03-29T04:10:11.843Z,40.20
2023-03-29T04:15:20.642Z,41.60
2023-03-29T04:20:29.952Z,39.92
2023-03-29T04:25:38.129Z,40.23
2023-03-29T04:30:48.537Z,42.43
2023-03-29T04:35:55.263Z,39.33
2023-03-29T04:41:05.240Z,37.67
2023-03-29T04:46:13.611Z,37.47
2023-03-29T04:51:22.792Z,36.53
2023-03-29T04:56:31.340Z,38.15
2023-03-29T05:01:39.898Z,36.73
2023-03-29T05:06:47.573Z,37.20
2023-03-29T05:11:54.784Z,36.67
2023-03-29T05:17:02.024Z,44.43
2023-03-29T05:22:10.918Z,38.33
2023-03-29T05:27:18.640Z,38.70
2023-03-29T05:32:26.340Z,44.10
2023-03-29T05:37:38.427Z,41.30
2023-03-29T05:42:45.576Z,41.33
2023-03-29T05:47:53.051Z,43.23
2023-03-29T05:53:00.675Z,43.67
2023-03-29T05:58:07.859Z,45.53
2023-03-29T06:03:28.241Z,43.37
2023-03-29T06:08:37.184Z,43.15
2023-03-29T06:13:47.931Z,44.03
2023-03-29T06:18:55.465Z,45.28
2023-03-29T06:24:04.989Z,47.43
2023-03-29T06:29:12.430Z,46.25
2023-03-29T06:34:22.016Z,48.15
2023-03-29T06:39:30.369Z,48.25
2023-03-29T06:44:38.291Z,50.00
2023-03-29T06:49:46.431Z,48.00
2023-03-29T06:54:55.007Z,56.43
2023-03-29T07:00:02.476Z,61.13
2023-03-29T07:05:13.741Z,53.47
2023-03-29T07:10:27.428Z,50.17
2023-03-29T07:15:36.225Z,53.75
2023-03-29T07:20:43.461Z,52.17
2023-03-29T07:25:54.400Z,51.00
2023-03-29T07:31:12.982Z,51.28
2023-03-29T07:41:28.110Z,47.80
2023-03-29T07:51:41.107Z,49.60
2023-03-29T07:56:51.689Z,48.75
2023-03-29T08:02:00.509Z,48.47
2023-03-29T08:07:07.818Z,49.30
2023-03-29T08:12:14.333Z,47.70
2023-03-29T08:17:21.564Z,48.42
2023-03-29T08:22:28.882Z,47.17
2023-03-29T08:32:50.333Z,47.00
2023-03-29T08:37:55.699Z,47.10
2023-03-29T08:43:32.897Z,47.30
2023-03-29T08:48:46.927Z,47.10
2023-03-29T08:54:06.816Z,47.37
2023-03-29T08:59:27.622Z,47.17
2023-03-29T09:04:49.226Z,47.03
2023-03-29T09:09:57.996Z,47.07
2023-03-29T09:15:24.344Z,48.10
2023-03-29T09:20:52.798Z,47.47
2023-03-29T09:26:16.257Z,48.40
2023-03-29T09:31:38.611Z,47.90
2023-03-29T09:37:07.094Z,47.73
2023-03-29T09:42:16.304Z,47.53
2023-03-29T09:47:35.020Z,47.90
2023-03-29T09:52:41.628Z,47.60
2023-03-29T09:57:50.266Z,47.98
2023-03-29T10:03:00.762Z,47.37
2023-03-29T10:08:21.187Z,48.27
2023-03-29T10:13:34.484Z,47.73
2023-03-29T10:18:44.318Z,47.17
2023-03-29T10:23:54.873Z,47.93
2023-03-29T10:29:07.724Z,47.50
2023-03-29T10:34:18.796Z,47.20
2023-03-29T10:39:31.116Z,47.24
2023-03-29T10:44:39.782Z,46.80
2023-03-29T10:49:59.698Z,46.83
2023-03-29T10:55:08.103Z,46.87
2023-03-29T11:00:34.521Z,46.43
2023-03-29T11:06:04.872Z,46.30
2023-03-29T11:11:41.429Z,46.63
2023-03-29T11:17:18.465Z,45.77
2023-03-29T11:22:51.988Z,46.35
2023-03-29T11:28:26.713Z,45.93
2023-03-29T11:33:38.508Z,46.00
2023-03-29T11:39:17.222Z,45.47
2023-03-29T11:44:33.825Z,46.03
2023-03-29T11:49:49.447Z,45.40
2023-03-29T11:55:13.150Z,45.63
2023-03-29T12:00:33.499Z,45.63
2023-03-29T12:06:00.138Z,46.40
2023-03-29T12:11:21.362Z,46.00
2023-03-29T12:16:45.311Z,45.50
2023-03-29T12:21:54.749Z,45.57
2023-03-29T12:27:33.430Z,46.00
2023-03-29T12:33:15.327Z,45.87
2023-03-29T12:38:30.588Z,45.77
2023-03-29T12:43:43.412Z,45.70
2023-03-29T12:48:55.295Z,45.63
2023-03-29T12:54:16.858Z,46.27
2023-03-29T12:59:40.856Z,45.67
2023-03-29T13:04:57.848Z,45.67
2023-03-29T13:10:33.560Z,45.47
2023-03-29T13:15:42.982Z,45.30
2023-03-29T13:21:07.262Z,46.10
2023-03-29T13:26:36.173Z,46.50
2023-03-29T13:31:59.615Z,45.73
2023-03-29T13:37:43.057Z,45.97
2023-03-29T13:42:57.983Z,45.57
2023-03-29T13:48:26.463Z,46.40
2023-03-29T13:53:38.615Z,46.10
2023-03-29T13:58:59.262Z,45.93
2023-03-29T14:04:09.116Z,45.70
2023-03-29T14:09:19.936Z,46.27
2023-03-29T14:14:30.543Z,46.60
2023-03-29T14:19:40.503Z,46.27
2023-03-29T14:24:57.442Z,46.90
2023-03-29T14:30:08.190Z,46.30
2023-03-29T14:35:14.957Z,46.30
2023-03-29T14:40:23.145Z,46.42
2023-03-29T14:45:30.009Z,46.53
2023-03-29T14:50:37.609Z,47.10
2023-03-29T14:55:46.672Z,46.60
2023-03-29T15:00:55.246Z,46.30
2023-03-29T15:06:05.655Z,46.73
2023-03-29T15:11:25.000Z,46.43
2023-03-29T15:16:33.626Z,46.60
2023-03-29T15:21:43.408Z,48.07
2023-03-29T15:27:06.908Z,50.67
2023-03-29T15:32:38.167Z,47.80
2023-03-29T15:37:45.816Z,48.30
2023-03-29T15:42:53.143Z,49.13
2023-03-29T15:48:05.036Z,48.43
2023-03-29T15:53:15.624Z,48.83
2023-03-29T15:58:27.938Z,50.07
2023-03-29T16:03:36.455Z,50.33
2023-03-29T16:08:43.694Z,53.27
2023-03-29T16:13:51.701Z,52.87
2023-03-29T16:18:58.528Z,49.90
2023-03-29T16:24:07.621Z,62.17
2023-03-29T16:29:17.518Z,49.47
2023-03-29T16:34:24.526Z,56.57
2023-03-29T16:39:32.300Z,64.80
2023-03-29T16:44:42.241Z,50.67
2023-03-29T16:49:49.712Z,59.13
2023-03-29T16:54:56.802Z,52.77
2023-03-29T17:00:06.594Z,50.53
2023-03-29T17:05:14.364Z,53.47
2023-03-29T17:10:22.873Z,55.03
2023-03-29T17:15:30.713Z,56.37
2023-03-29T17:20:40.710Z,61.60
2023-03-29T17:25:48.304Z,61.93
2023-03-29T17:30:56.493Z,60.23
2023-03-29T17:36:04.679Z,59.23
2023-03-29T17:41:11.739Z,55.63
2023-03-29T17:46:21.313Z,64.12
2023-03-29T17:51:29.521Z,53.30
2023-03-29T17:56:36.664Z,55.00
2023-03-29T18:01:43.865Z,52.33
2023-03-29T18:06:51.219Z,52.93
2023-03-29T18:12:00.489Z,52.17
2023-03-29T18:17:07.332Z,51.60
2023-03-29T18:22:15.136Z,51.77
2023-03-29T18:27:23.136Z,52.70
2023-03-29T18:32:32.906Z,57.43
2023-03-29T18:37:40.094Z,57.20
2023-03-29T18:42:47.402Z,53.60
2023-03-29T18:47:55.476Z,53.33
2023-03-29T18:53:03.150Z,51.40
2023-03-29T18:58:12.556Z,51.83
2023-03-29T19:03:20.396Z,53.93
2023-03-29T19:08:28.572Z,51.60
2023-03-29T19:13:37.263Z,54.77
2023-03-29T19:18:46.266Z,52.17
2023-03-29T19:23:53.551Z,56.67
2023-03-29T19:29:01.705Z,60.10
2023-03-29T19:34:10.342Z,57.83
2023-03-29T19:39:17.979Z,56.73
2023-03-29T19:44:25.373Z,54.00
2023-03-29T19:49:34.368Z,53.53
2023-03-29T19:54:43.372Z,50.73
2023-03-29T19:59:50.076Z,50.77
2023-03-29T20:04:58.022Z,50.47
2023-03-29T20:10:05.452Z,51.43
2023-03-29T20:15:13.066Z,51.17
2023-03-29T20:20:19.882Z,53.73
2023-03-29T20:25:27.705Z,54.37
2023-03-29T20:30:35.468Z,54.70
2023-03-29T20:35:43.307Z,52.93
2023-03-29T20:40:50.365Z,52.37
2023-03-29T20:45:57.814Z,49.40
2023-03-29T20:51:06.327Z,47.93
2023-03-29T20:56:15.390Z,47.87
2023-03-29T21:01:22.619Z,49.90
2023-03-29T21:06:30.672Z,48.35
2023-03-29T21:11:38.821Z,47.85
2023-03-29T21:16:47.555Z,47.97
2023-03-29T21:21:57.080Z,48.83
2023-03-29T21:27:05.372Z,49.33
2023-03-29T21:32:12.406Z,55.50
2023-03-29T21:37:19.022Z,52.23
2023-03-29T21:42:26.496Z,64.53
2023-03-29T21:47:34.230Z,54.47
2023-03-29T21:52:41.245Z,52.20
2023-03-29T22:02:53.513Z,50.50
2023-03-29T22:08:02.320Z,52.77
2023-03-29T22:13:09.791Z,49.83
2023-03-29T22:18:18.929Z,51.67
2023-03-29T22:23:26.109Z,51.07
2023-03-29T22:28:37.069Z,51.45
2023-03-29T22:33:44.450Z,47.90
2023-03-29T22:44:04.350Z,48.50
2023-03-29T22:49:11.712Z,51.77
2023-03-29T22:54:18.477Z,48.63
2023-03-29T22:59:28.662Z,49.93
2023-03-29T23:04:37.819Z,50.58
2023-03-29T23:09:44.410Z,51.73
2023-03-29T23:25:07.886Z,49.98
2023-03-29T23:30:14.939Z,51.17
2023-03-29T23:35:23.115Z,52.70
2023-03-29T23:45:37.560Z,49.88
2023-03-29T23:50:46.966Z,48.63
2023-03-29T23:55:54.508Z,55.70
